createdAt,value
2019-01-26T00:01:38.084Z,98539.86
2019-01-26T00:04:07.039Z,98539.67
2019-01-26T00:06:35.904Z,98541.67
2019-01-26T00:09:09.048Z,98535.45
2019-01-26T00:11:37.921Z,98536.79
2019-01-26T00:14:07.051Z,98533.09
2019-01-26T00:16:35.977Z,98525.27
2019-01-26T00:19:05.208Z,98522.57
2019-01-26T00:21:34.083Z,98523.41
2019-01-26T00:24:02.937Z,98518.06
2019-01-26T00:26:36.244Z,98513.84
2019-01-26T00:29:02.319Z,98509.78
2019-01-26T00:31:31.202Z,98504.50
2019-01-26T00:33:59.984Z,98501.39
2019-01-26T00:36:28.867Z,98500.39
2019-01-26T00:38:57.731Z,98492.23
2019-01-26T00:41:26.607Z,98492.23
2019-01-26T00:43:55.400Z,98499.73
2019-01-26T00:46:28.388Z,98491.77
2019-01-26T00:48:55.264Z,98489.63
2019-01-26T00:51:24.203Z,98487.84
2019-01-26T00:53:53.065Z,98481.97
2019-01-26T00:56:21.936Z,98479.72
2019-01-26T00:58:50.795Z,98476.73
2019-01-26T01:01:19.746Z,98474.92
2019-01-26T01:03:48.746Z,98473.23
2019-01-26T01:06:17.636Z,98478.54
2019-01-26T01:08:46.510Z,98473.30
2019-01-26T01:11:16.106Z,98476.33
2019-01-26T01:13:44.962Z,98468.80
2019-01-26T01:16:13.827Z,98455.14
2019-01-26T01:18:42.614Z,98453.84
2019-01-26T01:21:11.487Z,98456.17
2019-01-26T01:23:40.355Z,98462.30
2019-01-26T01:26:10.025Z,98455.77
2019-01-26T01:28:38.966Z,98457.83
2019-01-26T01:31:07.756Z,98464.59
2019-01-26T01:33:36.634Z,98461.23
2019-01-26T01:36:05.595Z,98457.12
2019-01-26T01:38:34.467Z,98462.63
2019-01-26T01:41:03.326Z,98474.00
2019-01-26T01:43:32.362Z,98475.67
2019-01-26T01:46:01.415Z,98483.94
2019-01-26T01:48:30.359Z,98485.12
2019-01-26T01:50:59.141Z,98479.80
2019-01-26T01:53:28.009Z,98475.33
2019-01-26T01:55:56.953Z,98475.48
2019-01-26T01:58:25.745Z,98470.42
2019-01-26T02:00:54.599Z,98460.67
2019-01-26T02:03:23.463Z,98452.51
2019-01-26T02:05:52.325Z,98445.80
2019-01-26T02:08:21.276Z,98455.93
2019-01-26T02:10:50.197Z,98454.66
2019-01-26T02:13:19.159Z,98449.59
2019-01-26T02:15:48.011Z,98444.41
2019-01-26T02:18:16.807Z,98445.52
2019-01-26T02:20:45.600Z,98444.83
2019-01-26T02:23:14.475Z,98443.53
2019-01-26T02:25:43.333Z,98441.72
2019-01-26T02:28:12.131Z,98434.65
2019-01-26T02:30:40.994Z,98433.30
2019-01-26T02:33:09.790Z,98427.88
2019-01-26T02:35:38.567Z,98430.42
2019-01-26T02:38:07.457Z,98427.35
2019-01-26T02:40:36.404Z,98423.91
2019-01-26T02:43:05.366Z,98416.81
2019-01-26T02:45:34.220Z,98411.28
2019-01-26T02:48:03.021Z,98409.14
2019-01-26T02:50:31.869Z,98397.25
2019-01-26T02:53:00.728Z,98397.45
2019-01-26T02:55:29.581Z,98399.03
2019-01-26T02:57:58.521Z,98396.03
2019-01-26T03:00:27.378Z,98382.77
2019-01-26T03:02:56.241Z,98382.00
2019-01-26T03:05:25.157Z,98384.42
2019-01-26T03:07:53.948Z,98376.17
2019-01-26T03:10:23.708Z,98389.48
2019-01-26T03:12:52.572Z,98385.06
2019-01-26T03:15:22.783Z,98389.47
2019-01-26T03:17:51.711Z,98376.87
2019-01-26T03:20:21.356Z,98375.41
2019-01-26T03:22:50.200Z,98378.61
2019-01-26T03:25:19.138Z,98373.30
2019-01-26T03:27:48.137Z,98371.24
2019-01-26T03:30:19.288Z,98368.09
2019-01-26T03:32:48.182Z,98361.39
2019-01-26T03:35:17.108Z,98360.20
2019-01-26T03:37:46.043Z,98355.92
2019-01-26T03:40:16.823Z,98361.79
2019-01-26T03:42:45.787Z,98356.29
2019-01-26T03:45:15.025Z,98359.89
2019-01-26T03:47:43.952Z,98347.84
2019-01-26T03:50:13.669Z,98348.48
2019-01-26T03:52:42.575Z,98349.91
2019-01-26T03:55:13.523Z,98347.56
2019-01-26T03:57:42.386Z,98336.70
2019-01-26T04:00:16.649Z,98329.55
2019-01-26T04:02:45.772Z,98333.80
2019-01-26T04:05:15.041Z,98336.70
2019-01-26T04:07:43.910Z,98320.41
2019-01-26T04:10:13.178Z,98318.51
2019-01-26T04:12:42.041Z,98314.78
2019-01-26T04:15:12.136Z,98307.86
2019-01-26T04:17:40.933Z,98310.52
2019-01-26T04:20:12.076Z,98315.09
2019-01-26T04:22:41.002Z,98311.05
2019-01-26T04:25:10.043Z,98301.59
2019-01-26T04:27:38.887Z,98305.53
2019-01-26T04:30:10.134Z,98308.43
2019-01-26T04:32:39.020Z,98309.11
2019-01-26T04:35:08.459Z,98308.48
2019-01-26T04:37:37.295Z,98308.10
2019-01-26T04:40:08.953Z,98302.80
2019-01-26T04:42:37.708Z,98305.25
2019-01-26T04:45:08.378Z,98292.69
2019-01-26T04:47:37.146Z,98309.00
2019-01-26T04:50:07.510Z,98310.98
2019-01-26T04:52:36.389Z,98305.56
2019-01-26T04:55:06.002Z,98316.56
2019-01-26T04:57:34.875Z,98316.56
2019-01-26T05:00:05.626Z,98318.52
2019-01-26T05:02:34.413Z,98320.23
2019-01-26T05:05:03.445Z,98322.06
2019-01-26T05:07:32.427Z,98321.15
2019-01-26T05:10:01.193Z,98314.83
2019-01-26T05:12:29.980Z,98312.23
2019-01-26T05:14:58.765Z,98313.98
2019-01-26T05:17:27.577Z,98318.55
2019-01-26T05:19:56.416Z,98311.22
2019-01-26T05:22:25.280Z,98314.71
2019-01-26T05:24:54.285Z,98303.23
2019-01-26T05:27:23.082Z,98316.94
2019-01-26T05:29:51.850Z,98312.77
2019-01-26T05:32:20.639Z,98305.36
2019-01-26T05:34:49.417Z,98320.23
2019-01-26T05:37:18.272Z,98317.74
2019-01-26T05:39:47.052Z,98317.05
2019-01-26T05:42:15.950Z,98324.50
2019-01-26T05:44:44.839Z,98328.55
2019-01-26T05:47:13.732Z,98320.38
2019-01-26T05:49:42.513Z,98318.89
2019-01-26T05:52:11.372Z,98316.90
2019-01-26T05:54:40.151Z,98313.47
2019-01-26T05:57:08.958Z,98306.52
2019-01-26T05:59:37.736Z,98307.42
2019-01-26T06:02:06.684Z,98306.41
2019-01-26T06:04:35.539Z,98311.67
2019-01-26T06:07:04.480Z,98313.51
2019-01-26T06:09:33.330Z,98316.46
2019-01-26T06:12:02.251Z,98317.14
2019-01-26T06:14:31.037Z,98310.16
2019-01-26T06:16:59.831Z,98316.91
2019-01-26T06:19:28.683Z,98322.19
2019-01-26T06:21:57.544Z,98330.48
2019-01-26T06:24:26.477Z,98344.84
2019-01-26T06:26:55.282Z,98334.58
2019-01-26T06:29:24.054Z,98336.30
2019-01-26T06:31:52.920Z,98324.81
2019-01-26T06:34:21.765Z,98324.93
2019-01-26T06:36:50.631Z,98324.47
2019-01-26T06:39:19.468Z,98328.87
2019-01-26T06:41:48.247Z,98329.05
2019-01-26T06:44:17.031Z,98321.68
2019-01-26T06:46:45.910Z,98320.60
2019-01-26T06:49:14.724Z,98321.92
2019-01-26T06:51:53.976Z,98325.81
2019-01-26T06:54:22.932Z,98329.31
2019-01-26T06:56:51.865Z,98339.58
2019-01-26T06:59:20.726Z,98335.88
2019-01-26T07:01:49.584Z,98340.37
2019-01-26T07:04:43.011Z,98348.07
2019-01-26T07:07:14.005Z,98342.04
2019-01-26T07:09:42.864Z,98346.13
2019-01-26T07:12:11.711Z,98346.19
2019-01-26T07:14:40.491Z,98341.30
2019-01-26T07:17:09.410Z,98341.95
2019-01-26T07:19:38.346Z,98334.64
2019-01-26T07:22:07.291Z,98329.25
2019-01-26T07:24:36.098Z,98326.84
2019-01-26T07:27:04.892Z,98323.70
2019-01-26T07:29:33.721Z,98316.19
2019-01-26T07:32:02.570Z,98318.95
2019-01-26T07:34:31.527Z,98320.73
2019-01-26T07:37:00.373Z,98326.75
2019-01-26T07:39:29.621Z,98319.53
2019-01-26T07:41:58.485Z,98315.80
2019-01-26T07:44:27.342Z,98313.12
2019-01-26T07:46:56.200Z,98317.19
2019-01-26T07:49:25.064Z,98317.57
2019-01-26T07:51:53.856Z,98306.42
2019-01-26T07:54:22.717Z,98311.91
2019-01-26T07:56:51.504Z,98300.48
2019-01-26T07:59:20.291Z,98290.80
2019-01-26T08:01:49.153Z,98294.16
2019-01-26T08:04:18.008Z,98295.83
2019-01-26T08:06:46.794Z,98295.27
2019-01-26T08:09:16.854Z,98290.12
2019-01-26T08:11:45.627Z,98291.15
2019-01-26T08:14:14.626Z,98287.98
2019-01-26T08:16:43.470Z,98299.70
2019-01-26T08:19:12.405Z,98300.80
2019-01-26T08:21:41.264Z,98300.31
2019-01-26T08:24:10.146Z,98309.31
2019-01-26T08:26:38.983Z,98307.35
2019-01-26T08:29:07.794Z,98305.62
2019-01-26T08:31:36.741Z,98314.16
2019-01-26T08:34:05.599Z,98314.65
2019-01-26T08:36:34.446Z,98303.39
2019-01-26T08:39:04.432Z,98295.77
2019-01-26T08:41:33.349Z,98295.84
2019-01-26T08:44:02.312Z,98297.22
2019-01-26T08:46:31.101Z,98292.83
2019-01-26T08:49:00.053Z,98286.58
2019-01-26T08:51:28.817Z,98288.23
2019-01-26T08:53:57.601Z,98288.02
2019-01-26T08:56:26.450Z,98280.38
2019-01-26T08:58:55.221Z,98285.84
2019-01-26T09:01:24.008Z,98282.46
2019-01-26T09:04:07.881Z,98285.09
2019-01-26T09:06:42.928Z,98302.09
2019-01-26T09:09:13.410Z,98294.03
2019-01-26T09:11:42.341Z,98289.85
2019-01-26T09:14:11.170Z,98292.45
2019-01-26T09:16:40.030Z,98287.48
2019-01-26T09:19:08.995Z,98301.31
2019-01-26T09:21:37.852Z,98302.41
2019-01-26T09:24:07.371Z,98297.02
2019-01-26T09:26:36.417Z,98269.48
2019-01-26T09:29:05.658Z,98265.07
2019-01-26T09:31:34.618Z,98283.66
2019-01-26T09:34:03.636Z,98279.75
2019-01-26T09:36:32.497Z,98275.84
2019-01-26T09:39:01.440Z,98266.68
2019-01-26T09:41:30.223Z,98271.03
2019-01-26T09:43:58.996Z,98269.05
2019-01-26T09:46:27.868Z,98259.77
2019-01-26T09:48:56.735Z,98264.19
2019-01-26T09:51:25.589Z,98262.48
2019-01-26T09:53:54.351Z,98272.34
2019-01-26T09:56:23.211Z,98267.18
2019-01-26T09:58:52.090Z,98268.08
2019-01-26T10:01:23.892Z,98268.48
2019-01-26T10:03:52.692Z,98263.27
2019-01-26T10:06:21.551Z,98271.87
2019-01-26T10:08:50.430Z,98276.51
2019-01-26T10:11:19.359Z,98266.70
2019-01-26T10:13:48.551Z,98257.59
2019-01-26T10:16:17.477Z,98269.84
2019-01-26T10:18:46.256Z,98273.59
2019-01-26T10:21:15.132Z,98279.90
2019-01-26T10:23:43.900Z,98270.77
2019-01-26T10:26:12.836Z,98282.88
2019-01-26T10:28:41.613Z,98272.14
2019-01-26T10:31:10.399Z,98277.78
2019-01-26T10:33:39.187Z,98271.48
2019-01-26T10:36:27.059Z,98272.85
2019-01-26T10:39:04.500Z,98275.14
2019-01-26T10:41:42.591Z,98278.64
2019-01-26T10:44:14.971Z,98275.37
2019-01-26T10:46:43.840Z,98272.02
2019-01-26T10:49:12.705Z,98277.56
2019-01-26T10:51:41.512Z,98277.47
2019-01-26T10:54:10.283Z,98272.33
2019-01-26T10:56:39.072Z,98273.68
2019-01-26T10:59:08.632Z,98264.38
2019-01-26T11:01:37.490Z,98256.91
2019-01-26T11:04:06.359Z,98254.92
2019-01-26T11:06:35.226Z,98253.27
2019-01-26T11:09:06.527Z,98245.91
2019-01-26T11:11:35.335Z,98242.96
2019-01-26T11:14:04.286Z,98237.33
2019-01-26T11:16:33.168Z,98246.11
2019-01-26T11:19:07.875Z,98238.28
2019-01-26T11:21:32.671Z,98228.70
2019-01-26T11:24:01.754Z,98218.97
2019-01-26T11:26:30.794Z,98221.16
2019-01-26T11:28:59.572Z,98222.45
2019-01-26T11:31:28.570Z,98219.13
2019-01-26T11:33:57.344Z,98212.21
2019-01-26T11:36:26.260Z,98212.56
2019-01-26T11:38:55.038Z,98201.70
2019-01-26T11:41:23.816Z,98209.41
2019-01-26T11:43:52.594Z,98200.19
2019-01-26T11:46:30.776Z,98192.80
2019-01-26T11:48:59.989Z,98190.33
2019-01-26T11:51:34.071Z,98178.87
2019-01-26T11:54:02.943Z,98180.47
2019-01-26T11:56:39.979Z,98176.23
2019-01-26T11:59:08.882Z,98169.77
2019-01-26T12:01:48.437Z,98167.62
2019-01-26T12:04:31.916Z,98173.20
2019-01-26T12:07:09.408Z,98170.12
2019-01-26T12:09:38.263Z,98155.41
2019-01-26T12:12:07.179Z,98153.97
2019-01-26T12:14:36.033Z,98149.50
2019-01-26T12:17:05.064Z,98146.20
2019-01-26T12:19:33.917Z,98148.68
2019-01-26T12:22:02.737Z,98139.80
2019-01-26T12:24:31.539Z,98136.94
2019-01-26T12:27:00.580Z,98139.33
2019-01-26T12:29:29.360Z,98139.08
2019-01-26T12:31:58.308Z,98128.25
2019-01-26T12:34:27.093Z,98122.72
2019-01-26T12:36:56.026Z,98120.13
2019-01-26T12:39:24.969Z,98119.16
2019-01-26T12:41:53.742Z,98127.35
2019-01-26T12:44:22.529Z,98113.44
2019-01-26T12:46:51.304Z,98115.83
2019-01-26T12:49:20.235Z,98118.31
2019-01-26T12:51:49.106Z,98114.14
2019-01-26T12:54:18.042Z,98114.26
2019-01-26T12:56:46.960Z,98114.25
2019-01-26T12:59:15.854Z,98106.53
2019-01-26T13:01:45.191Z,98104.27
2019-01-26T13:04:14.067Z,98105.25
2019-01-26T13:06:42.959Z,98097.86
2019-01-26T13:09:12.855Z,98095.83
2019-01-26T13:11:43.095Z,98101.63
2019-01-26T13:14:12.931Z,98088.69
2019-01-26T13:16:41.709Z,98088.11
2019-01-26T13:19:10.585Z,98088.11
2019-01-26T13:21:39.493Z,98087.64
2019-01-26T13:24:08.492Z,98083.02
2019-01-26T13:26:37.350Z,98073.97
2019-01-26T13:29:06.516Z,98072.09
2019-01-26T13:31:35.442Z,98069.03
2019-01-26T13:34:04.373Z,98078.77
2019-01-26T13:36:33.251Z,98076.50
2019-01-26T13:39:02.047Z,98084.69
2019-01-26T13:41:31.193Z,98064.97
2019-01-26T13:43:59.959Z,98061.91
2019-01-26T13:46:28.887Z,98065.36
2019-01-26T13:48:57.663Z,98063.81
2019-01-26T13:51:26.512Z,98059.77
2019-01-26T13:53:55.364Z,98058.70
2019-01-26T13:56:24.218Z,98053.72
2019-01-26T13:58:53.035Z,98060.14
2019-01-26T14:01:21.870Z,98057.06
2019-01-26T14:03:50.464Z,98058.24
2019-01-26T14:06:19.241Z,98055.38
2019-01-26T14:08:48.097Z,98052.52
2019-01-26T14:11:16.987Z,98056.44
2019-01-26T14:13:45.767Z,98047.79
2019-01-26T14:16:15.312Z,98055.25
2019-01-26T14:18:44.544Z,98040.76
2019-01-26T14:21:13.471Z,98045.52
2019-01-26T14:23:42.310Z,98041.02
2019-01-26T14:26:11.388Z,98043.63
2019-01-26T14:28:40.345Z,98035.53
2019-01-26T14:31:09.655Z,98041.13
2019-01-26T14:33:38.722Z,98034.94
2019-01-26T14:36:07.648Z,98023.30
2019-01-26T14:38:36.495Z,98029.00
2019-01-26T14:41:05.656Z,98022.70
2019-01-26T14:43:34.424Z,98026.50
2019-01-26T14:46:03.348Z,98018.20
2019-01-26T14:48:32.214Z,98024.47
2019-01-26T14:51:01.054Z,98017.22
2019-01-26T14:53:30.365Z,98020.55
2019-01-26T14:55:59.143Z,98025.55
2019-01-26T14:58:27.985Z,98019.37
2019-01-26T15:00:56.919Z,98020.22
2019-01-26T15:03:25.759Z,98011.42
2019-01-26T15:05:54.567Z,98007.42
2019-01-26T15:08:23.419Z,98003.83
2019-01-26T15:10:52.267Z,98007.01
2019-01-26T15:13:21.158Z,98001.32
2019-01-26T15:15:50.101Z,97999.28
2019-01-26T15:18:18.873Z,97997.84
2019-01-26T15:20:47.801Z,97991.34
2019-01-26T15:23:16.731Z,97993.84
2019-01-26T15:25:46.802Z,97996.45
2019-01-26T15:28:16.626Z,97984.47
2019-01-26T15:30:45.483Z,97984.67
2019-01-26T15:33:15.131Z,97979.20
2019-01-26T15:35:43.976Z,97981.28
2019-01-26T15:38:13.015Z,97974.65
2019-01-26T15:40:41.886Z,97976.53
2019-01-26T15:43:10.813Z,97976.27
2019-01-26T15:45:42.415Z,97976.25
2019-01-26T15:48:11.459Z,97978.73
2019-01-26T15:50:41.978Z,97974.70
2019-01-26T15:53:11.082Z,97969.44
2019-01-26T15:55:40.000Z,97972.78
2019-01-26T15:58:08.971Z,97966.34
2019-01-26T16:00:40.545Z,97960.60
2019-01-26T16:03:09.623Z,97961.27
2019-01-26T16:05:38.673Z,97961.09
2019-01-26T16:08:07.951Z,97960.25
2019-01-26T16:10:36.797Z,97956.34
2019-01-26T16:13:06.040Z,97958.36
2019-01-26T16:15:35.189Z,97956.55
2019-01-26T16:18:05.232Z,97948.73
2019-01-26T16:20:34.247Z,97944.47
2019-01-26T16:23:09.090Z,97949.34
2019-01-26T16:25:33.820Z,97944.30
2019-01-26T16:28:02.779Z,97942.11
2019-01-26T16:30:32.781Z,97939.05
2019-01-26T16:33:01.566Z,97936.77
2019-01-26T16:35:30.504Z,97927.52
2019-01-26T16:37:59.445Z,97923.28
2019-01-26T16:40:30.577Z,97920.27
2019-01-26T16:42:59.570Z,97919.63
2019-01-26T16:45:30.738Z,97915.36
2019-01-26T16:47:59.661Z,97907.66
2019-01-26T16:50:29.655Z,97907.77
2019-01-26T16:52:58.638Z,97909.42
2019-01-26T16:55:27.864Z,97908.81
2019-01-26T16:57:56.812Z,97904.19
2019-01-26T17:00:40.113Z,97903.46
2019-01-26T17:03:09.207Z,97902.73
2019-01-26T17:05:38.493Z,97895.53
2019-01-26T17:08:08.398Z,97895.96
2019-01-26T17:10:37.679Z,97892.27
2019-01-26T17:13:06.753Z,97887.61
2019-01-26T17:15:35.608Z,97874.64
2019-01-26T17:18:05.308Z,97875.53
2019-01-26T17:20:35.275Z,97868.94
2019-01-26T17:23:04.441Z,97868.77
2019-01-26T17:25:33.370Z,97871.16
2019-01-26T17:28:02.311Z,97864.19
2019-01-26T17:30:33.403Z,97867.66
2019-01-26T17:33:07.299Z,97870.25
2019-01-26T17:35:32.869Z,97869.83
2019-01-26T17:38:01.667Z,97874.30
2019-01-26T17:40:30.515Z,97870.44
2019-01-26T17:42:59.445Z,97863.05
2019-01-26T17:45:28.372Z,97858.52
2019-01-26T17:47:57.239Z,97857.21
2019-01-26T17:50:26.428Z,97853.23
2019-01-26T17:52:55.336Z,97849.03
2019-01-26T17:55:24.288Z,97849.06
2019-01-26T17:57:53.145Z,97847.42
2019-01-26T18:00:26.882Z,97848.52
2019-01-26T18:02:55.948Z,97844.39
2019-01-26T18:05:24.812Z,97835.25
2019-01-26T18:07:53.654Z,97834.70
2019-01-26T18:10:22.552Z,97835.31
2019-01-26T18:12:51.739Z,97837.23
2019-01-26T18:15:20.669Z,97834.39
2019-01-26T18:17:49.694Z,97832.48
2019-01-26T18:20:23.776Z,97829.53
2019-01-26T18:22:52.997Z,97826.13
2019-01-26T18:25:24.051Z,97819.20
2019-01-26T18:27:52.960Z,97813.27
2019-01-26T18:30:24.140Z,97809.34
2019-01-26T18:32:53.002Z,97803.55
2019-01-26T18:35:22.538Z,97798.81
2019-01-26T18:37:51.481Z,97797.11
2019-01-26T18:40:22.856Z,97788.11
2019-01-26T18:42:52.773Z,97787.50
2019-01-26T18:45:23.012Z,97781.81
2019-01-26T18:47:51.868Z,97780.13
2019-01-26T18:50:23.179Z,97777.61
2019-01-26T18:52:52.139Z,97779.17
2019-01-26T18:55:21.065Z,97783.31
2019-01-26T18:57:49.914Z,97772.41
2019-01-26T19:00:21.058Z,97777.73
2019-01-26T19:02:56.059Z,97781.17
2019-01-26T19:05:24.908Z,97777.84
2019-01-26T19:07:53.774Z,97768.16
2019-01-26T19:10:22.647Z,97769.92
2019-01-26T19:12:51.520Z,97760.18
2019-01-26T19:15:22.075Z,97747.08
2019-01-26T19:17:50.847Z,97751.67
2019-01-26T19:20:19.785Z,97742.95
2019-01-26T19:22:48.563Z,97741.47
2019-01-26T19:25:18.226Z,97744.54
2019-01-26T19:27:47.245Z,97738.34
2019-01-26T19:30:18.322Z,97737.13
2019-01-26T19:32:47.253Z,97729.25
2019-01-26T19:35:16.205Z,97725.08
2019-01-26T19:37:45.144Z,97720.72
2019-01-26T19:40:16.633Z,97711.06
2019-01-26T19:42:45.497Z,97710.54
2019-01-26T19:45:16.566Z,97702.51
2019-01-26T19:47:45.536Z,97693.75
2019-01-26T19:50:19.596Z,97686.84
2019-01-26T19:52:48.517Z,97684.93
2019-01-26T19:55:19.028Z,97674.31
2019-01-26T19:57:48.248Z,97679.59
2019-01-26T20:00:17.172Z,97669.11
2019-01-26T20:02:46.429Z,97670.57
2019-01-26T20:05:18.561Z,97667.02
2019-01-26T20:07:48.033Z,97660.17
2019-01-26T20:10:17.674Z,97661.78
2019-01-26T20:12:46.990Z,97656.82
2019-01-26T20:15:20.001Z,97657.31
2019-01-26T20:17:49.228Z,97658.17
2019-01-26T20:20:24.043Z,97657.23
2019-01-26T20:22:53.083Z,97652.06
2019-01-26T20:25:22.072Z,97643.53
2019-01-26T20:27:50.924Z,97640.23
2019-01-26T20:30:25.352Z,97636.56
2019-01-26T20:32:54.424Z,97627.02
2019-01-26T20:35:23.326Z,97617.55
2019-01-26T20:37:52.103Z,97604.91
2019-01-26T20:40:21.186Z,97592.34
2019-01-26T20:42:50.114Z,97595.64
2019-01-26T20:45:21.338Z,97587.58
2019-01-26T20:47:50.221Z,97583.35
2019-01-26T20:50:19.158Z,97580.38
2019-01-26T20:52:48.209Z,97580.16
2019-01-26T20:55:17.143Z,97572.81
2019-01-26T20:57:45.931Z,97570.60
2019-01-26T21:00:23.868Z,97564.06
2019-01-26T21:02:52.662Z,97555.17
2019-01-26T21:05:21.598Z,97554.59
2019-01-26T21:07:50.467Z,97551.13
2019-01-26T21:10:21.352Z,97544.39
2019-01-26T21:12:50.855Z,97538.57
2019-01-26T21:15:19.920Z,97529.47
2019-01-26T21:17:48.790Z,97522.70
2019-01-26T21:20:18.671Z,97521.86
2019-01-26T21:22:47.612Z,97504.50
2019-01-26T21:25:16.660Z,97502.83
2019-01-26T21:27:45.701Z,97497.66
2019-01-26T21:30:23.297Z,97498.87
2019-01-26T21:32:52.539Z,97494.86
2019-01-26T21:35:21.448Z,97481.41
2019-01-26T21:37:50.480Z,97480.83
2019-01-26T21:40:21.576Z,97477.61
2019-01-26T21:42:50.523Z,97471.10
2019-01-26T21:45:19.883Z,97469.72
2019-01-26T21:47:48.832Z,97468.88
2019-01-26T21:50:20.263Z,97459.90
2019-01-26T21:52:49.295Z,97460.12
2019-01-26T21:55:18.215Z,97458.09
2019-01-26T21:57:47.148Z,97453.59
2019-01-26T22:02:39.147Z,97443.80
2019-01-26T22:05:08.977Z,97447.60
2019-01-26T22:07:37.838Z,97444.52
2019-01-26T22:10:08.424Z,97439.55
2019-01-26T22:12:37.276Z,97430.80
2019-01-26T22:15:07.884Z,97421.02
2019-01-26T22:17:36.917Z,97418.63
2019-01-26T22:20:09.002Z,97420.77
2019-01-26T22:22:37.774Z,97421.22
2019-01-26T22:25:08.322Z,97411.66
2019-01-26T22:27:37.098Z,97404.09
2019-01-26T22:30:08.798Z,97404.44
2019-01-26T22:32:37.774Z,97394.99
2019-01-26T22:35:07.006Z,97394.15
2019-01-26T22:37:35.793Z,97386.21
2019-01-26T22:40:06.998Z,97364.91
2019-01-26T22:42:35.858Z,97371.03
2019-01-26T22:45:06.012Z,97361.70
2019-01-26T22:47:34.799Z,97354.80
2019-01-26T22:50:03.990Z,97357.20
2019-01-26T22:52:32.819Z,97353.06
2019-01-26T22:55:02.617Z,97350.69
2019-01-26T22:57:31.403Z,97337.08
2019-01-26T23:00:00.206Z,97337.08
2019-01-26T23:02:29.308Z,97341.34
2019-01-26T23:05:38.442Z,97339.21
2019-01-26T23:08:16.906Z,97329.05
2019-01-26T23:11:13.434Z,97324.08
2019-01-26T23:13:49.494Z,97315.77
2019-01-26T23:16:43.840Z,97309.86
2019-01-26T23:19:20.367Z,97311.06
2019-01-26T23:22:23.424Z,97310.56
2019-01-26T23:25:24.603Z,97301.23
2019-01-26T23:28:20.822Z,97294.34
2019-01-26T23:31:15.616Z,97280.44
2019-01-26T23:33:45.235Z,97272.15
2019-01-26T23:36:14.660Z,97273.84
2019-01-26T23:38:43.534Z,97268.39
2019-01-26T23:41:12.759Z,97270.06
2019-01-26T23:43:41.621Z,97268.25
2019-01-26T23:46:10.554Z,97265.05
2019-01-26T23:48:39.326Z,97260.89
2019-01-26T23:51:08.271Z,97250.58
2019-01-26T23:53:37.310Z,97233.33
2019-01-26T23:56:06.379Z,97235.67
2019-01-26T23:58:35.426Z,97222.91
